sensor_id;sensor_type;location;lat;lon;timestamp;pressure;altitude;pressure_sealevel;temperature;humidity
51439;BME280;38816;51.142;-0.974;2023-02-11T00:00:31;102129.50;;;6.49;100.00
51439;BME280;38816;51.142;-0.974;2023-02-11T00:02:56;102124.50;;;6.50;100.00
51439;BME280;38816;51.142;-0.974;2023-02-11T00:05:22;102129.28;;;6.59;100.00
51439;BME280;38816;51.142;-0.974;2023-02-11T00:07:47;102119.97;;;6.59;100.00
51439;BME280;38816;51.142;-0.974;2023-02-11T00:10:12;102102.94;;;6.60;100.00
51439;BME280;38816;51.142;-0.974;2023-02-11T00:12:38;102115.63;;;6.72;100.00
51439;BME280;38816;51.142;-0.974;2023-02-11T00:15:04;102118.78;;;6.68;100.00
51439;BME280;38816;51.142;-0.974;2023-02-11T00:17:31;102104.72;;;6.61;100.00
51439;BME280;38816;51.142;-0.974;2023-02-11T00:19:56;102116.81;;;6.64;100.00
51439;BME280;38816;51.142;-0.974;2023-02-11T00:22:22;102113.44;;;6.65;100.00
51439;BME280;38816;51.142;-0.974;2023-02-11T00:24:47;102116.50;;;6.72;100.00
51439;BME280;38816;51.142;-0.974;2023-02-11T00:27:22;102099.88;;;6.66;100.00
51439;BME280;38816;51.142;-0.974;2023-02-11T00:29:47;102101.31;;;6.75;100.00
51439;BME280;38816;51.142;-0.974;2023-02-11T00:32:13;102113.94;;;6.72;100.00
51439;BME280;38816;51.142;-0.974;2023-02-11T00:34:38;102101.28;;;6.60;100.00
51439;BME280;38816;51.142;-0.974;2023-02-11T00:37:03;102109.44;;;6.68;100.00
51439;BME280;38816;51.142;-0.974;2023-02-11T00:39:29;102119.94;;;6.73;100.00
51439;BME280;38816;51.142;-0.974;2023-02-11T00:41:55;102121.78;;;6.75;100.00
51439;BME280;38816;51.142;-0.974;2023-02-11T00:44:20;102111.94;;;6.81;100.00
51439;BME280;38816;51.142;-0.974;2023-02-11T00:46:46;102104.69;;;6.74;100.00
51439;BME280;38816;51.142;-0.974;2023-02-11T00:49:11;102098.69;;;6.74;100.00
51439;BME280;38816;51.142;-0.974;2023-02-11T00:51:36;102093.56;;;6.74;100.00
51439;BME280;38816;51.142;-0.974;2023-02-11T00:54:02;102109.47;;;6.83;100.00
51439;BME280;38816;51.142;-0.974;2023-02-11T00:56:28;102112.91;;;6.83;100.00
51439;BME280;38816;51.142;-0.974;2023-02-11T00:58:53;102105.09;;;6.80;100.00
51439;BME280;38816;51.142;-0.974;2023-02-11T01:01:19;102101.84;;;6.70;100.00
51439;BME280;38816;51.142;-0.974;2023-02-11T01:03:44;102110.00;;;6.77;100.00
51439;BME280;38816;51.142;-0.974;2023-02-11T01:06:10;102130.13;;;6.86;100.00
51439;BME280;38816;51.142;-0.974;2023-02-11T01:08:36;102117.06;;;6.81;100.00
51439;BME280;38816;51.142;-0.974;2023-02-11T01:11:05;102130.59;;;6.94;100.00
51439;BME280;38816;51.142;-0.974;2023-02-11T01:13:34;102115.13;;;7.05;100.00
51439;BME280;38816;51.142;-0.974;2023-02-11T01:16:01;102110.31;;;6.97;100.00
51439;BME280;38816;51.142;-0.974;2023-02-11T01:18:27;102112.34;;;7.02;100.00
51439;BME280;38816;51.142;-0.974;2023-02-11T01:20:53;102098.59;;;7.00;100.00
51439;BME280;38816;51.142;-0.974;2023-02-11T01:23:19;102109.03;;;7.03;100.00
51439;BME280;38816;51.142;-0.974;2023-02-11T01:25:45;102107.03;;;7.13;100.00
51439;BME280;38816;51.142;-0.974;2023-02-11T01:28:20;102110.47;;;7.13;100.00
51439;BME280;38816;51.142;-0.974;2023-02-11T01:30:46;102096.84;;;6.99;100.00
51439;BME280;38816;51.142;-0.974;2023-02-11T01:33:11;102113.34;;;7.04;100.00
51439;BME280;38816;51.142;-0.974;2023-02-11T01:35:38;102106.38;;;7.02;100.00
51439;BME280;38816;51.142;-0.974;2023-02-11T01:38:03;102098.66;;;7.15;100.00
51439;BME280;38816;51.142;-0.974;2023-02-11T01:40:29;102096.69;;;7.11;100.00
51439;BME280;38816;51.142;-0.974;2023-02-11T01:42:54;102109.59;;;7.13;100.00
51439;BME280;38816;51.142;-0.974;2023-02-11T01:45:41;102112.78;;;7.23;100.00
51439;BME280;38816;51.142;-0.974;2023-02-11T01:48:32;102103.06;;;7.18;100.00
51439;BME280;38816;51.142;-0.974;2023-02-11T01:51:08;102099.63;;;7.17;100.00
51439;BME280;38816;51.142;-0.974;2023-02-11T01:53:36;102106.59;;;7.20;100.00
51439;BME280;38816;51.142;-0.974;2023-02-11T01:56:22;102093.91;;;7.21;100.00
51439;BME280;38816;51.142;-0.974;2023-02-11T01:59:13;102093.13;;;7.22;100.00
51439;BME280;38816;51.142;-0.974;2023-02-11T02:01:44;102092.59;;;7.28;100.00
51439;BME280;38816;51.142;-0.974;2023-02-11T02:04:13;102089.69;;;7.22;100.00
51439;BME280;38816;51.142;-0.974;2023-02-11T02:06:50;102094.47;;;7.30;100.00
51439;BME280;38816;51.142;-0.974;2023-02-11T02:09:24;102091.78;;;7.29;100.00
51439;BME280;38816;51.142;-0.974;2023-02-11T02:11:51;102087.38;;;7.26;100.00
51439;BME280;38816;51.142;-0.974;2023-02-11T02:14:17;102091.50;;;7.24;100.00
51439;BME280;38816;51.142;-0.974;2023-02-11T02:16:43;102090.22;;;7.16;100.00
51439;BME280;38816;51.142;-0.974;2023-02-11T02:29:07;102101.75;;;7.24;100.00
51439;BME280;38816;51.142;-0.974;2023-02-11T02:32:38;102094.00;;;7.23;100.00
51439;BME280;38816;51.142;-0.974;2023-02-11T02:37:50;102096.63;;;7.24;100.00
51439;BME280;38816;51.142;-0.974;2023-02-11T02:40:23;102094.06;;;7.24;100.00
51439;BME280;38816;51.142;-0.974;2023-02-11T02:42:50;102094.94;;;7.25;100.00
51439;BME280;38816;51.142;-0.974;2023-02-11T02:45:15;102083.22;;;7.28;100.00
51439;BME280;38816;51.142;-0.974;2023-02-11T02:47:41;102078.91;;;7.27;100.00
51439;BME280;38816;51.142;-0.974;2023-02-11T02:50:07;102065.84;;;7.23;100.00
51439;BME280;38816;51.142;-0.974;2023-02-11T02:53:11;102061.00;;;7.13;100.00
51439;BME280;38816;51.142;-0.974;2023-02-11T02:55:59;102075.91;;;7.20;100.00
51439;BME280;38816;51.142;-0.974;2023-02-11T02:58:53;102066.28;;;7.16;100.00
51439;BME280;38816;51.142;-0.974;2023-02-11T03:06:34;102046.00;;;7.04;100.00
51439;BME280;38816;51.142;-0.974;2023-02-11T03:09:08;102052.34;;;7.10;100.00
51439;BME280;38816;51.142;-0.974;2023-02-11T03:11:36;102044.84;;;7.14;100.00
51439;BME280;38816;51.142;-0.974;2023-02-11T03:14:04;102039.06;;;7.16;100.00
51439;BME280;38816;51.142;-0.974;2023-02-11T03:16:31;102053.94;;;7.23;100.00
51439;BME280;38816;51.142;-0.974;2023-02-11T03:19:08;102039.66;;;7.12;100.00
51439;BME280;38816;51.142;-0.974;2023-02-11T03:21:36;102038.50;;;7.07;100.00
51439;BME280;38816;51.142;-0.974;2023-02-11T03:24:08;102049.44;;;7.19;100.00
51439;BME280;38816;51.142;-0.974;2023-02-11T03:26:43;102031.19;;;7.13;100.00
51439;BME280;38816;51.142;-0.974;2023-02-11T03:29:39;102051.19;;;7.20;100.00
51439;BME280;38816;51.142;-0.974;2023-02-11T03:37:38;102041.44;;;7.28;100.00
51439;BME280;38816;51.142;-0.974;2023-02-11T03:40:12;102048.22;;;7.27;100.00
51439;BME280;38816;51.142;-0.974;2023-02-11T03:42:42;102032.00;;;7.12;100.00
51439;BME280;38816;51.142;-0.974;2023-02-11T03:45:11;102044.25;;;7.18;100.00
51439;BME280;38816;51.142;-0.974;2023-02-11T03:47:40;102055.16;;;7.15;100.00
51439;BME280;38816;51.142;-0.974;2023-02-11T03:50:09;102058.09;;;7.21;100.00
51439;BME280;38816;51.142;-0.974;2023-02-11T03:52:36;102048.91;;;7.10;100.00
51439;BME280;38816;51.142;-0.974;2023-02-11T03:55:08;102066.53;;;7.20;100.00
51439;BME280;38816;51.142;-0.974;2023-02-11T03:57:35;102060.13;;;7.12;100.00
51439;BME280;38816;51.142;-0.974;2023-02-11T04:00:01;102068.16;;;7.18;100.00
51439;BME280;38816;51.142;-0.974;2023-02-11T04:02:29;102079.25;;;7.19;100.00
51439;BME280;38816;51.142;-0.974;2023-02-11T04:04:55;102067.06;;;7.15;100.00
51439;BME280;38816;51.142;-0.974;2023-02-11T04:07:21;102064.91;;;7.21;100.00
51439;BME280;38816;51.142;-0.974;2023-02-11T04:09:46;102056.97;;;7.16;100.00
51439;BME280;38816;51.142;-0.974;2023-02-11T04:12:12;102067.47;;;7.21;100.00
51439;BME280;38816;51.142;-0.974;2023-02-11T04:14:37;102068.94;;;7.17;100.00
51439;BME280;38816;51.142;-0.974;2023-02-11T04:17:03;102070.00;;;7.21;100.00
51439;BME280;38816;51.142;-0.974;2023-02-11T04:19:28;102075.81;;;7.18;100.00
51439;BME280;38816;51.142;-0.974;2023-02-11T04:21:54;102070.69;;;7.18;100.00
51439;BME280;38816;51.142;-0.974;2023-02-11T04:24:19;102073.06;;;7.15;100.00
51439;BME280;38816;51.142;-0.974;2023-02-11T04:26:45;102066.53;;;7.20;100.00
51439;BME280;38816;51.142;-0.974;2023-02-11T04:29:10;102065.84;;;7.23;100.00
51439;BME280;38816;51.142;-0.974;2023-02-11T04:31:36;102066.75;;;7.23;100.00
51439;BME280;38816;51.142;-0.974;2023-02-11T04:34:01;102064.50;;;7.15;100.00
51439;BME280;38816;51.142;-0.974;2023-02-11T04:36:26;102075.03;;;7.19;100.00
51439;BME280;38816;51.142;-0.974;2023-02-11T04:38:52;102066.13;;;7.13;100.00
51439;BME280;38816;51.142;-0.974;2023-02-11T04:41:17;102074.06;;;7.17;100.00
51439;BME280;38816;51.142;-0.974;2023-02-11T04:43:42;102070.91;;;7.21;100.00
51439;BME280;38816;51.142;-0.974;2023-02-11T04:46:08;102082.28;;;7.26;100.00
51439;BME280;38816;51.142;-0.974;2023-02-11T04:48:33;102074.59;;;7.26;100.00
51439;BME280;38816;51.142;-0.974;2023-02-11T04:51:00;102096.56;;;7.38;100.00
51439;BME280;38816;51.142;-0.974;2023-02-11T04:53:26;102082.09;;;7.23;100.00
51439;BME280;38816;51.142;-0.974;2023-02-11T04:55:51;102072.19;;;7.15;100.00
51439;BME280;38816;51.142;-0.974;2023-02-11T04:58:18;102086.31;;;7.23;100.00
51439;BME280;38816;51.142;-0.974;2023-02-11T05:04:05;102080.44;;;7.39;100.00
51439;BME280;38816;51.142;-0.974;2023-02-11T05:06:30;102079.47;;;7.36;100.00
51439;BME280;38816;51.142;-0.974;2023-02-11T05:08:56;102098.16;;;7.35;100.00
51439;BME280;38816;51.142;-0.974;2023-02-11T05:11:23;102081.88;;;7.20;100.00
51439;BME280;38816;51.142;-0.974;2023-02-11T05:13:49;102090.31;;;7.32;100.00
51439;BME280;38816;51.142;-0.974;2023-02-11T05:16:15;102093.66;;;7.31;100.00
51439;BME280;38816;51.142;-0.974;2023-02-11T05:18:42;102090.03;;;7.28;100.00
51439;BME280;38816;51.142;-0.974;2023-02-11T05:21:10;102110.16;;;7.36;100.00
51439;BME280;38816;51.142;-0.974;2023-02-11T05:23:36;102102.53;;;7.23;100.00
51439;BME280;38816;51.142;-0.974;2023-02-11T05:26:02;102108.47;;;7.22;100.00
51439;BME280;38816;51.142;-0.974;2023-02-11T05:28:28;102118.44;;;7.32;100.00
51439;BME280;38816;51.142;-0.974;2023-02-11T05:30:54;102093.72;;;7.18;100.00
51439;BME280;38816;51.142;-0.974;2023-02-11T05:33:20;102105.91;;;7.22;100.00
51439;BME280;38816;51.142;-0.974;2023-02-11T05:35:45;102123.56;;;7.32;100.00
51439;BME280;38816;51.142;-0.974;2023-02-11T05:38:11;102126.84;;;7.30;100.00
51439;BME280;38816;51.142;-0.974;2023-02-11T05:40:36;102114.72;;;7.27;100.00
51439;BME280;38816;51.142;-0.974;2023-02-11T05:43:02;102123.56;;;7.32;100.00
51439;BME280;38816;51.142;-0.974;2023-02-11T05:45:27;102116.31;;;7.25;100.00
51439;BME280;38816;51.142;-0.974;2023-02-11T05:47:53;102127.53;;;7.27;100.00
51439;BME280;38816;51.142;-0.974;2023-02-11T05:50:18;102109.06;;;7.18;100.00
51439;BME280;38816;51.142;-0.974;2023-02-11T05:52:44;102111.97;;;7.24;100.00
51439;BME280;38816;51.142;-0.974;2023-02-11T05:55:09;102117.00;;;7.23;100.00
51439;BME280;38816;51.142;-0.974;2023-02-11T05:57:35;102121.25;;;7.22;100.00
51439;BME280;38816;51.142;-0.974;2023-02-11T06:00:00;102116.41;;;7.27;100.00
51439;BME280;38816;51.142;-0.974;2023-02-11T06:02:26;102103.69;;;7.28;100.00
51439;BME280;38816;51.142;-0.974;2023-02-11T06:04:51;102120.41;;;7.36;100.00
51439;BME280;38816;51.142;-0.974;2023-02-11T06:07:16;102123.56;;;7.32;100.00
51439;BME280;38816;51.142;-0.974;2023-02-11T06:09:44;102124.28;;;7.30;100.00
51439;BME280;38816;51.142;-0.974;2023-02-11T06:12:09;102131.94;;;7.30;100.00
51439;BME280;38816;51.142;-0.974;2023-02-11T06:14:34;102124.09;;;7.27;100.00
51439;BME280;38816;51.142;-0.974;2023-02-11T06:17:00;102122.13;;;7.23;100.00
51439;BME280;38816;51.142;-0.974;2023-02-11T06:19:25;102126.56;;;7.25;100.00
51439;BME280;38816;51.142;-0.974;2023-02-11T06:21:51;102127.09;;;7.34;100.00
51439;BME280;38816;51.142;-0.974;2023-02-11T06:24:16;102129.06;;;7.39;100.00
51439;BME280;38816;51.142;-0.974;2023-02-11T06:26:42;102133.78;;;7.32;100.00
51439;BME280;38816;51.142;-0.974;2023-02-11T06:29:07;102130.44;;;7.33;100.00
51439;BME280;38816;51.142;-0.974;2023-02-11T06:31:35;102128.69;;;7.32;100.00
51439;BME280;38816;51.142;-0.974;2023-02-11T06:34:01;102117.28;;;7.27;100.00
51439;BME280;38816;51.142;-0.974;2023-02-11T06:36:27;102116.41;;;7.27;100.00
51439;BME280;38816;51.142;-0.974;2023-02-11T06:38:52;102111.56;;;7.31;100.00
51439;BME280;38816;51.142;-0.974;2023-02-11T06:41:18;102100.53;;;7.32;100.00
51439;BME280;38816;51.142;-0.974;2023-02-11T06:43:44;102102.91;;;7.29;100.00
51439;BME280;38816;51.142;-0.974;2023-02-11T06:46:10;102101.94;;;7.27;100.00
51439;BME280;38816;51.142;-0.974;2023-02-11T06:48:35;102114.31;;;7.34;100.00
51439;BME280;38816;51.142;-0.974;2023-02-11T06:51:02;102110.41;;;7.26;100.00
51439;BME280;38816;51.142;-0.974;2023-02-11T06:53:29;102109.09;;;7.33;100.00
51439;BME280;38816;51.142;-0.974;2023-02-11T06:55:55;102114.75;;;7.42;100.00
51439;BME280;38816;51.142;-0.974;2023-02-11T06:58:20;102115.88;;;7.32;100.00
51439;BME280;38816;51.142;-0.974;2023-02-11T07:00:45;102093.91;;;7.21;100.00
51439;BME280;38816;51.142;-0.974;2023-02-11T07:03:11;102118.34;;;7.31;100.00
51439;BME280;38816;51.142;-0.974;2023-02-11T07:05:36;102116.41;;;7.27;100.00
51439;BME280;38816;51.142;-0.974;2023-02-11T07:08:03;102128.41;;;7.28;100.00
51439;BME280;38816;51.142;-0.974;2023-02-11T07:10:28;102125.31;;;7.33;100.00
51439;BME280;38816;51.142;-0.974;2023-02-11T07:12:54;102122.59;;;7.30;100.00
51439;BME280;38816;51.142;-0.974;2023-02-11T07:15:19;102124.09;;;7.27;100.00
51439;BME280;38816;51.142;-0.974;2023-02-11T07:17:44;102136.34;;;7.32;100.00
51439;BME280;38816;51.142;-0.974;2023-02-11T07:20:10;102124.97;;;7.27;100.00
51439;BME280;38816;51.142;-0.974;2023-02-11T07:22:38;102133.59;;;7.29;100.00
51439;BME280;38816;51.142;-0.974;2023-02-11T07:25:04;102136.16;;;7.29;100.00
51439;BME280;38816;51.142;-0.974;2023-02-11T07:27:29;102151.09;;;7.36;100.00
51439;BME280;38816;51.142;-0.974;2023-02-11T07:29:55;102153.25;;;7.44;100.00
51439;BME280;38816;51.142;-0.974;2023-02-11T07:32:20;102152.84;;;7.38;100.00
51439;BME280;38816;51.142;-0.974;2023-02-11T07:34:45;102157.09;;;7.37;100.00
51439;BME280;38816;51.142;-0.974;2023-02-11T07:37:12;102157.81;;;7.34;100.00
51439;BME280;38816;51.142;-0.974;2023-02-11T07:39:37;102169.81;;;7.35;100.00
51439;BME280;38816;51.142;-0.974;2023-02-11T07:42:03;102163.09;;;7.38;100.00
51439;BME280;38816;51.142;-0.974;2023-02-11T07:44:28;102162.72;;;7.31;100.00
51439;BME280;38816;51.142;-0.974;2023-02-11T07:46:54;102159.28;;;7.31;100.00
51439;BME280;38816;51.142;-0.974;2023-02-11T07:49:19;102185.34;;;7.39;100.00
51439;BME280;38816;51.142;-0.974;2023-02-11T07:51:45;102188.06;;;7.42;100.00
51439;BME280;38816;51.142;-0.974;2023-02-11T07:54:11;102186.59;;;7.45;100.00
51439;BME280;38816;51.142;-0.974;2023-02-11T07:56:36;102173.59;;;7.42;100.00
51439;BME280;38816;51.142;-0.974;2023-02-11T07:59:02;102178.03;;;7.45;100.00
51439;BME280;38816;51.142;-0.974;2023-02-11T08:01:28;102175.47;;;7.45;100.00
51439;BME280;38816;51.142;-0.974;2023-02-11T08:03:58;102180.78;;;7.48;100.00
51439;BME280;38816;51.142;-0.974;2023-02-11T08:06:25;102182.53;;;7.49;100.00
51439;BME280;38816;51.142;-0.974;2023-02-11T08:08:51;102187.66;;;7.49;100.00
51439;BME280;38816;51.142;-0.974;2023-02-11T08:11:22;102197.38;;;7.54;100.00
51439;BME280;38816;51.142;-0.974;2023-02-11T08:13:48;102192.94;;;7.52;100.00
51439;BME280;38816;51.142;-0.974;2023-02-11T08:16:22;102202.50;;;7.54;100.00
51439;BME280;38816;51.142;-0.974;2023-02-11T08:18:48;102208.28;;;7.52;100.00
51439;BME280;38816;51.142;-0.974;2023-02-11T08:21:14;102200.63;;;7.52;100.00
51439;BME280;38816;51.142;-0.974;2023-02-11T08:23:40;102178.31;;;7.49;100.00
51439;BME280;38816;51.142;-0.974;2023-02-11T08:26:08;102178.38;;;7.51;100.00
51439;BME280;38816;51.142;-0.974;2023-02-11T08:28:35;102180.72;;;7.61;100.00
51439;BME280;38816;51.142;-0.974;2023-02-11T08:31:10;102171.25;;;7.60;100.00
51439;BME280;38816;51.142;-0.974;2023-02-11T08:33:36;102165.44;;;7.63;100.00
51439;BME280;38816;51.142;-0.974;2023-02-11T08:36:11;102170.66;;;7.64;100.00
51439;BME280;38816;51.142;-0.974;2023-02-11T08:38:37;102185.47;;;7.70;100.00
51439;BME280;38816;51.142;-0.974;2023-02-11T08:41:03;102174.47;;;7.71;100.00
51439;BME280;38816;51.142;-0.974;2023-02-11T08:43:29;102184.09;;;7.75;100.00
51439;BME280;38816;51.142;-0.974;2023-02-11T08:45:54;102170.38;;;7.74;100.00
51439;BME280;38816;51.142;-0.974;2023-02-11T08:48:20;102166.44;;;7.79;100.00
51439;BME280;38816;51.142;-0.974;2023-02-11T08:50:45;102163.88;;;7.79;100.00
51439;BME280;38816;51.142;-0.974;2023-02-11T08:53:10;102164.75;;;7.80;100.00
51439;BME280;38816;51.142;-0.974;2023-02-11T08:55:36;102167.06;;;7.75;100.00
51439;BME280;38816;51.142;-0.974;2023-02-11T08:58:02;102172.34;;;7.78;100.00
51439;BME280;38816;51.142;-0.974;2023-02-11T09:00:27;102179.84;;;7.75;100.00
51439;BME280;38816;51.142;-0.974;2023-02-11T09:02:52;102168.91;;;7.78;100.00
51439;BME280;38816;51.142;-0.974;2023-02-11T09:05:18;102172.53;;;7.81;100.00
51439;BME280;38816;51.142;-0.974;2023-02-11T09:07:43;102170.16;;;7.84;100.00
51439;BME280;38816;51.142;-0.974;2023-02-11T09:10:09;102183.31;;;7.91;100.00
51439;BME280;38816;51.142;-0.974;2023-02-11T09:12:34;102186.84;;;7.93;100.00
51439;BME280;38816;51.142;-0.974;2023-02-11T09:14:59;102185.50;;;7.99;100.00
51439;BME280;38816;51.142;-0.974;2023-02-11T09:17:25;102177.28;;;8.05;100.00
51439;BME280;38816;51.142;-0.974;2023-02-11T09:19:50;102165.09;;;8.01;100.00
51439;BME280;38816;51.142;-0.974;2023-02-11T09:22:16;102176.06;;;8.13;100.00
51439;BME280;38816;51.142;-0.974;2023-02-11T09:24:41;102177.31;;;8.20;100.00
51439;BME280;38816;51.142;-0.974;2023-02-11T09:27:07;102175.44;;;8.17;100.00
51439;BME280;38816;51.142;-0.974;2023-02-11T09:29:32;102185.25;;;8.24;100.00
51439;BME280;38816;51.142;-0.974;2023-02-11T09:31:57;102174.91;;;8.23;100.00
51439;BME280;38816;51.142;-0.974;2023-02-11T09:34:23;102184.53;;;8.27;100.00
51439;BME280;38816;51.142;-0.974;2023-02-11T09:36:48;102176.25;;;8.16;100.00
51439;BME280;38816;51.142;-0.974;2023-02-11T09:39:18;102173.44;;;8.11;100.00
51439;BME280;38816;51.142;-0.974;2023-02-11T09:42:01;102192.84;;;8.23;100.00
51439;BME280;38816;51.142;-0.974;2023-02-11T09:44:34;102187.44;;;8.18;100.00
51439;BME280;38816;51.142;-0.974;2023-02-11T09:47:02;102191.97;;;8.22;100.00
51439;BME280;38816;51.142;-0.974;2023-02-11T09:49:49;102200.78;;;8.27;100.00
51439;BME280;38816;51.142;-0.974;2023-02-11T09:52:49;102200.97;;;8.30;100.00
51439;BME280;38816;51.142;-0.974;2023-02-11T09:55:20;102200.09;;;8.30;100.00
51439;BME280;38816;51.142;-0.974;2023-02-11T09:57:47;102191.78;;;8.34;100.00
51439;BME280;38816;51.142;-0.974;2023-02-11T10:06:14;102198.34;;;8.44;100.00
51439;BME280;38816;51.142;-0.974;2023-02-11T10:08:58;102189.66;;;8.42;100.00
51439;BME280;38816;51.142;-0.974;2023-02-11T10:11:46;102207.97;;;8.48;100.00
51439;BME280;38816;51.142;-0.974;2023-02-11T10:14:35;102212.63;;;8.55;100.00
51439;BME280;38816;51.142;-0.974;2023-02-11T10:20:32;102213.72;;;8.44;100.00
51439;BME280;38816;51.142;-0.974;2023-02-11T10:23:14;102196.41;;;8.40;100.00
51439;BME280;38816;51.142;-0.974;2023-02-11T10:25:45;102208.94;;;8.50;100.00
51439;BME280;38816;51.142;-0.974;2023-02-11T10:28:16;102211.94;;;8.57;100.00
51439;BME280;38816;51.142;-0.974;2023-02-11T10:35:48;102199.13;;;8.57;100.00
51439;BME280;38816;51.142;-0.974;2023-02-11T10:38:13;102215.09;;;8.68;100.00
51439;BME280;38816;51.142;-0.974;2023-02-11T10:40:39;102201.31;;;8.66;100.00
51439;BME280;38816;51.142;-0.974;2023-02-11T10:43:09;102218.97;;;8.76;100.00
51439;BME280;38816;51.142;-0.974;2023-02-11T10:45:42;102201.00;;;8.76;100.00
51439;BME280;38816;51.142;-0.974;2023-02-11T10:53:43;102214.16;;;8.82;100.00
51439;BME280;38816;51.142;-0.974;2023-02-11T10:56:20;102213.47;;;8.85;100.00
51439;BME280;38816;51.142;-0.974;2023-02-11T10:59:29;102207.03;;;8.77;100.00
51439;BME280;38816;51.142;-0.974;2023-02-11T11:02:00;102233.91;;;8.83;100.00
51439;BME280;38816;51.142;-0.974;2023-02-11T11:06:56;102224.59;;;8.85;100.00
51439;BME280;38816;51.142;-0.974;2023-02-11T11:09:29;102215.06;;;8.83;100.00
51439;BME280;38816;51.142;-0.974;2023-02-11T11:11:55;102223.66;;;8.83;100.00
51439;BME280;38816;51.142;-0.974;2023-02-11T11:14:22;102221.59;;;8.93;100.00
51439;BME280;38816;51.142;-0.974;2023-02-11T11:16:53;102226.53;;;8.90;100.00
51439;BME280;38816;51.142;-0.974;2023-02-11T11:19:21;102208.50;;;8.88;100.00
51439;BME280;38816;51.142;-0.974;2023-02-11T11:21:54;102219.09;;;8.94;100.00
51439;BME280;38816;51.142;-0.974;2023-02-11T11:24:25;102227.09;;;9.00;100.00
51439;BME280;38816;51.142;-0.974;2023-02-11T11:26:57;102215.81;;;8.97;100.00
51439;BME280;38816;51.142;-0.974;2023-02-11T11:29:30;102226.41;;;9.03;100.00
51439;BME280;38816;51.142;-0.974;2023-02-11T11:31:59;102222.09;;;9.02;100.00
51439;BME280;38816;51.142;-0.974;2023-02-11T11:36:57;102213.09;;;8.94;100.00
51439;BME280;38816;51.142;-0.974;2023-02-11T11:39:31;102225.44;;;9.01;100.00
51439;BME280;38816;51.142;-0.974;2023-02-11T11:42:01;102204.75;;;8.98;100.00
51439;BME280;38816;51.142;-0.974;2023-02-11T11:44:34;102212.88;;;9.05;100.00
51439;BME280;38816;51.142;-0.974;2023-02-11T11:53:20;102211.44;;;9.10;100.00
51439;BME280;38816;51.142;-0.974;2023-02-11T11:58:35;102200.63;;;9.16;100.00
51439;BME280;38816;51.142;-0.974;2023-02-11T12:12:28;102198.03;;;9.16;100.00
51439;BME280;38816;51.142;-0.974;2023-02-11T12:34:34;102193.22;;;9.06;100.00
51439;BME280;38816;51.142;-0.974;2023-02-11T12:40:00;102187.16;;;9.20;100.00
51439;BME280;38816;51.142;-0.974;2023-02-11T12:42:49;102199.59;;;9.29;100.00
51439;BME280;38816;51.142;-0.974;2023-02-11T12:45:49;102194.03;;;9.21;100.00
51439;BME280;38816;51.142;-0.974;2023-02-11T12:56:42;102184.09;;;9.27;100.00
51439;BME280;38816;51.142;-0.974;2023-02-11T12:59:27;102172.88;;;9.25;100.00
51439;BME280;38816;51.142;-0.974;2023-02-11T13:01:55;102182.31;;;9.26;100.00
51439;BME280;38816;51.142;-0.974;2023-02-11T13:04:32;102178.88;;;9.26;100.00
51439;BME280;38816;51.142;-0.974;2023-02-11T13:07:03;102168.56;;;9.24;100.00
51439;BME280;38816;51.142;-0.974;2023-02-11T13:09:49;102173.75;;;9.26;100.00
51439;BME280;38816;51.142;-0.974;2023-02-11T13:12:17;102170.47;;;9.28;100.00
51439;BME280;38816;51.142;-0.974;2023-02-11T13:15:05;102170.78;;;9.18;100.00
51439;BME280;38816;51.142;-0.974;2023-02-11T13:17:57;102173.19;;;9.15;100.00
51439;BME280;38816;51.142;-0.974;2023-02-11T13:20:44;102158.09;;;9.05;100.00
51439;BME280;38816;51.142;-0.974;2023-02-11T13:26:12;102171.66;;;9.02;100.00
51439;BME280;38816;51.142;-0.974;2023-02-11T13:31:24;102161.16;;;8.98;100.00
51439;BME280;38816;51.142;-0.974;2023-02-11T13:33:51;102165.16;;;8.93;100.00
51439;BME280;38816;51.142;-0.974;2023-02-11T13:36:27;102164.97;;;8.90;100.00
51439;BME280;38816;51.142;-0.974;2023-02-11T13:39:04;102165.16;;;8.93;100.00
51439;BME280;38816;51.142;-0.974;2023-02-11T13:41:37;102156.16;;;8.84;100.00
51439;BME280;38816;51.142;-0.974;2023-02-11T13:44:17;102159.34;;;8.80;100.00
51439;BME280;38816;51.142;-0.974;2023-02-11T13:47:03;102166.41;;;8.84;100.00
51439;BME280;38816;51.142;-0.974;2023-02-11T13:49:40;102144.47;;;8.90;100.00
51439;BME280;38816;51.142;-0.974;2023-02-11T13:52:35;102162.19;;;9.01;100.00
51439;BME280;38816;51.142;-0.974;2023-02-11T13:55:22;102159.00;;;9.05;100.00
51439;BME280;38816;51.142;-0.974;2023-02-11T13:58:18;102161.06;;;9.12;100.00
51439;BME280;38816;51.142;-0.974;2023-02-11T14:00:57;102149.88;;;9.10;100.00
51439;BME280;38816;51.142;-0.974;2023-02-11T14:03:29;102151.06;;;9.17;100.00
51439;BME280;38816;51.142;-0.974;2023-02-11T14:06:20;102144.56;;;9.07;100.00
51439;BME280;38816;51.142;-0.974;2023-02-11T14:09:34;102156.75;;;9.11;100.00
51439;BME280;38816;51.142;-0.974;2023-02-11T14:12:23;102146.72;;;9.00;100.00
51439;BME280;38816;51.142;-0.974;2023-02-11T14:15:18;102149.59;;;8.90;100.00
51439;BME280;38816;51.142;-0.974;2023-02-11T14:17:43;102146.47;;;8.95;100.00
51439;BME280;38816;51.142;-0.974;2023-02-11T14:20:34;102145.59;;;8.95;100.00
51439;BME280;38816;51.142;-0.974;2023-02-11T14:23:01;102152.41;;;8.94;100.00
51439;BME280;38816;51.142;-0.974;2023-02-11T14:25:29;102151.44;;;8.92;100.00
51439;BME280;38816;51.142;-0.974;2023-02-11T14:28:07;102147.66;;;8.85;100.00
51439;BME280;38816;51.142;-0.974;2023-02-11T14:30:49;102138.13;;;8.83;100.00
51439;BME280;38816;51.142;-0.974;2023-02-11T14:36:37;102138.84;;;8.80;100.00
51439;BME280;38816;51.142;-0.974;2023-02-11T14:42:04;102144.91;;;8.82;100.00
51439;BME280;38816;51.142;-0.974;2023-02-11T14:44:31;102147.72;;;8.87;100.00
51439;BME280;38816;51.142;-0.974;2023-02-11T14:46:58;102144.28;;;8.86;100.00
51439;BME280;38816;51.142;-0.974;2023-02-11T14:49:27;102143.97;;;8.80;100.00